Time;durP1;ratioP1;P1;durP2;ratioP2;P2;SDS_P1;SDS_P2;PMS_P1;PMS_P2;Temp;Humidity;BMP_temperature;BMP_pressure;BME280_temperature;BME280_humidity;BME280_pressure;Samples;Min_cycle;Max_cycle;Signal;HPM_P1;HPM_P2
2023/06/16 00:00:24;;;;;;;;;;;;;;;14.25;76.34;101200.48;106907;1260;61037;-84
2023/06/16 00:03:15;;;;;;;;;;;;;;;14.21;76.45;101201.83;106855;1261;125038;-84
2023/06/16 00:05:45;;;;;;;;;;;;;;;14.19;76.57;101205.31;107076;1260;59894;-84
2023/06/16 00:08:14;;;;;;;;;;;;;;;14.15;76.63;101204.20;107183;1260;125863;-84
2023/06/16 00:10:41;;;;;;;;;;;;;;;14.13;76.70;101205.59;107101;1261;66947;-84
2023/06/16 00:13:07;;;;;;;;;;;;;;;14.11;76.72;101199.70;107152;1260;59983;-84
2023/06/16 00:15:40;;;;;;;;;;;;;;;14.08;76.74;101199.14;107030;1261;125005;-83
2023/06/16 00:18:07;;;;;;;;;;;;;;;14.06;76.85;101198.94;107120;1262;59503;-84
2023/06/16 00:20:34;;;;;;;;;;;;;;;14.05;76.85;101202.23;107042;1260;125319;-83
2023/06/16 00:23:00;;;;;;;;;;;;;;;14.03;76.98;101196.55;107513;1260;67056;-83
2023/06/16 00:25:26;;;;;;;;;;;;;;;14.00;77.00;101198.45;107330;1261;72710;-83
2023/06/16 00:27:53;;;;;;;;;;;;;;;13.98;77.06;101195.95;107466;1261;125034;-83
2023/06/16 00:30:19;;;;;;;;;;;;;;;13.96;77.06;101198.56;107541;1261;62199;-83
2023/06/16 00:32:45;;;;;;;;;;;;;;;13.93;77.09;101195.34;107212;1264;125757;-83
2023/06/16 00:35:12;;;;;;;;;;;;;;;13.93;77.13;101197.44;107207;1261;61135;-83
2023/06/16 00:37:40;;;;;;;;;;;;;;;13.90;77.31;101193.52;107134;1260;126425;-83
2023/06/16 00:40:07;;;;;;;;;;;;;;;13.88;77.24;101195.77;107261;1260;59875;-83
2023/06/16 00:42:34;;;;;;;;;;;;;;;13.86;77.29;101193.79;107147;1261;60008;-84
2023/06/16 00:45:03;;;;;;;;;;;;;;;13.84;77.37;101196.39;107182;1260;125192;-83
2023/06/16 00:47:30;;;;;;;;;;;;;;;13.82;77.49;101193.17;107002;1260;67621;-84
2023/06/16 00:49:57;;;;;;;;;;;;;;;13.80;77.67;101194.21;106909;1262;125976;-84
2023/06/16 00:52:25;;;;;;;;;;;;;;;13.79;77.68;101195.07;107413;1261;61818;-84
2023/06/16 00:54:54;;;;;;;;;;;;;;;13.79;77.85;101194.73;108555;1260;60438;-84
2023/06/16 00:57:21;;;;;;;;;;;;;;;13.83;77.98;101191.98;107735;1261;74609;-84
2023/06/16 00:59:48;;;;;;;;;;;;;;;13.88;77.99;101191.35;107731;1266;60168;-84
2023/06/16 01:02:14;;;;;;;;;;;;;;;13.89;78.04;101188.02;106623;1262;125345;-84
2023/06/16 01:04:41;;;;;;;;;;;;;;;13.89;77.81;101190.50;106929;1260;61280;-84
2023/06/16 01:07:30;;;;;;;;;;;;;;;13.86;77.76;101187.60;107121;1261;61106;-84
2023/06/16 01:10:00;;;;;;;;;;;;;;;13.81;77.76;101182.77;106934;1261;125798;-85
2023/06/16 01:12:49;;;;;;;;;;;;;;;13.78;77.79;101183.94;107057;1262;65886;-84
2023/06/16 01:15:17;;;;;;;;;;;;;;;13.73;77.71;101184.02;107118;1261;125327;-85
2023/06/16 01:17:46;;;;;;;;;;;;;;;13.70;77.65;101186.96;106951;1266;61225;-85
2023/06/16 01:20:15;;;;;;;;;;;;;;;13.67;77.76;101187.77;106765;1260;125424;-84
2023/06/16 01:23:01;;;;;;;;;;;;;;;13.63;77.77;101189.81;106788;1260;73406;-84
2023/06/16 01:25:29;;;;;;;;;;;;;;;13.56;77.65;101197.10;106914;1261;65739;-84
2023/06/16 01:27:55;;;;;;;;;;;;;;;13.52;77.63;101197.20;106723;1261;125046;-84
2023/06/16 01:30:22;;;;;;;;;;;;;;;13.49;77.61;101201.17;106891;1261;59311;-85
2023/06/16 01:32:55;;;;;;;;;;;;;;;13.45;77.68;101197.58;106742;1262;125107;-85
2023/06/16 01:35:22;;;;;;;;;;;;;;;13.43;77.75;101195.96;106995;1261;75039;-84
2023/06/16 01:37:50;;;;;;;;;;;;;;;13.40;77.73;101192.90;106970;1260;125628;-85
2023/06/16 01:40:17;;;;;;;;;;;;;;;13.37;77.69;101190.39;106794;1261;72601;-85
2023/06/16 01:42:45;;;;;;;;;;;;;;;13.35;77.74;101189.81;106899;1262;59607;-84
2023/06/16 01:45:12;;;;;;;;;;;;;;;13.35;77.85;101189.09;106635;1267;125213;-84
2023/06/16 01:47:39;;;;;;;;;;;;;;;13.37;77.96;101189.84;106881;1262;73473;-85
2023/06/16 01:50:25;;;;;;;;;;;;;;;13.42;78.07;101189.94;106700;1261;125615;-85
2023/06/16 01:52:57;;;;;;;;;;;;;;;13.51;78.33;101192.05;107053;1262;71730;-82
2023/06/16 01:55:23;;;;;;;;;;;;;;;13.61;78.44;101193.13;107222;1261;61293;-82
2023/06/16 01:57:50;;;;;;;;;;;;;;;13.69;78.52;101189.61;107235;1262;125683;-84
2023/06/16 02:00:17;;;;;;;;;;;;;;;13.80;78.55;101186.27;107408;1262;60876;-81
2023/06/16 02:02:45;;;;;;;;;;;;;;;13.89;78.38;101187.14;107081;1261;125800;-83
2023/06/16 02:05:13;;;;;;;;;;;;;;;13.99;78.27;101189.27;107134;1267;70884;-83
2023/06/16 02:07:41;;;;;;;;;;;;;;;14.08;78.19;101186.08;107057;1262;59897;-83
2023/06/16 02:10:07;;;;;;;;;;;;;;;14.17;78.17;101187.46;106918;1262;125399;-84
2023/06/16 02:12:33;;;;;;;;;;;;;;;14.26;77.90;101184.80;106939;1262;61221;-84
2023/06/16 02:15:02;;;;;;;;;;;;;;;14.34;77.93;101186.52;106943;1260;124940;-84
2023/06/16 02:17:30;;;;;;;;;;;;;;;14.43;77.76;101186.48;107048;1261;72623;-84
2023/06/16 02:19:58;;;;;;;;;;;;;;;14.50;77.64;101185.71;107113;1262;125155;-84
2023/06/16 02:22:26;;;;;;;;;;;;;;;14.57;77.58;101186.19;107180;1261;61152;-81
2023/06/16 02:24:52;;;;;;;;;;;;;;;14.65;77.53;101184.38;107318;1260;73293;-82
2023/06/16 02:27:19;;;;;;;;;;;;;;;14.72;77.43;101186.09;107315;1262;125183;-82
2023/06/16 02:29:46;;;;;;;;;;;;;;;14.78;77.42;101188.64;107046;1264;61396;-82
2023/06/16 02:32:12;;;;;;;;;;;;;;;14.85;77.40;101186.44;106806;1261;125382;-82
2023/06/16 02:34:38;;;;;;;;;;;;;;;14.90;77.42;101184.23;107154;1260;60778;-82
2023/06/16 02:37:05;;;;;;;;;;;;;;;14.95;77.24;101182.70;107058;1262;59396;-82
2023/06/16 02:39:32;;;;;;;;;;;;;;;14.99;77.30;101181.16;106707;1262;125029;-84
2023/06/16 02:41:59;;;;;;;;;;;;;;;15.03;77.31;101181.75;106850;1261;73335;-82
2023/06/16 02:44:26;;;;;;;;;;;;;;;15.08;77.37;101182.34;106974;1261;125356;-82
2023/06/16 02:46:52;;;;;;;;;;;;;;;15.12;77.35;101180.81;107229;1262;61830;-82
2023/06/16 02:49:19;;;;;;;;;;;;;;;15.17;77.49;101178.58;107336;1262;59579;-82
2023/06/16 02:51:45;;;;;;;;;;;;;;;15.22;77.54;101174.92;107002;1262;125532;-82
2023/06/16 02:54:12;;;;;;;;;;;;;;;15.30;77.61;101176.80;107456;1262;61710;-82
2023/06/16 02:56:38;;;;;;;;;;;;;;;15.38;77.64;101171.61;107397;1261;126432;-82
2023/06/16 02:59:04;;;;;;;;;;;;;;;15.44;77.56;101170.26;107558;1261;59633;-82
2023/06/16 03:01:32;;;;;;;;;;;;;;;15.50;77.58;101171.37;107471;1261;59342;-82
2023/06/16 03:03:59;;;;;;;;;;;;;;;15.57;77.58;101171.11;107142;1262;125144;-81
2023/06/16 03:06:29;;;;;;;;;;;;;;;15.61;77.47;101166.71;107168;1264;72632;-82
2023/06/16 03:08:56;;;;;;;;;;;;;;;15.65;77.49;101164.30;107159;1261;125387;-83
2023/06/16 03:11:22;;;;;;;;;;;;;;;15.70;77.51;101168.58;107285;1262;61267;-83
2023/06/16 03:13:49;;;;;;;;;;;;;;;15.76;77.48;101173.10;107279;1261;125308;-83
2023/06/16 03:16:17;;;;;;;;;;;;;;;15.79;77.39;101174.03;107348;1262;59741;-83
2023/06/16 03:18:43;;;;;;;;;;;;;;;15.81;77.38;101170.15;107307;1262;71052;-83
2023/06/16 03:21:10;;;;;;;;;;;;;;;15.83;77.35;101170.34;107282;1264;125567;-84
2023/06/16 03:23:38;;;;;;;;;;;;;;;15.85;77.24;101169.50;107358;1262;61113;-84
2023/06/16 03:26:05;;;;;;;;;;;;;;;15.92;77.28;101170.61;106907;1261;125540;-83
2023/06/16 03:28:32;;;;;;;;;;;;;;;15.99;76.99;101168.39;108550;1261;65677;-83
2023/06/16 03:31:04;;;;;;;;;;;;;;;16.04;77.08;101167.89;107807;1261;61020;-84
2023/06/16 03:33:31;;;;;;;;;;;;;;;16.10;77.08;101164.23;106969;1265;125125;-84
2023/06/16 03:35:58;;;;;;;;;;;;;;;16.18;77.21;101157.23;107515;1261;61270;-83
2023/06/16 03:38:25;;;;;;;;;;;;;;;16.25;77.09;101157.10;106862;1261;125152;-83
2023/06/16 03:40:51;;;;;;;;;;;;;;;16.27;76.98;101157.29;107341;1265;59248;-83
2023/06/16 03:43:17;;;;;;;;;;;;;;;16.29;77.00;101158.73;107593;1262;59895;-83
2023/06/16 03:45:44;;;;;;;;;;;;;;;16.32;76.87;101163.88;107210;1262;125212;-83
2023/06/16 03:48:10;;;;;;;;;;;;;;;16.31;76.84;101165.13;107246;1262;60076;-82
2023/06/16 03:50:36;;;;;;;;;;;;;;;16.34;76.84;101163.02;107234;1264;125278;-83
2023/06/16 03:53:03;;;;;;;;;;;;;;;16.36;76.64;101163.73;107470;1262;61386;-83
2023/06/16 03:55:29;;;;;;;;;;;;;;;16.37;76.59;101163.23;107133;1261;61114;-83
2023/06/16 03:57:56;;;;;;;;;;;;;;;16.40;76.31;101163.59;107086;1262;124961;-83
2023/06/16 04:00:25;;;;;;;;;;;;;;;16.45;76.37;101170.36;107124;1263;62247;-84
2023/06/16 04:02:51;;;;;;;;;;;;;;;16.48;76.30;101171.81;107242;1261;125165;-83
2023/06/16 04:05:26;;;;;;;;;;;;;;;16.55;76.33;101170.44;107280;1264;60994;-83
2023/06/16 04:07:54;;;;;;;;;;;;;;;16.65;76.30;101165.89;107397;1265;125454;-83
2023/06/16 04:10:20;;;;;;;;;;;;;;;16.73;76.16;101163.66;107606;1262;60416;-83
2023/06/16 04:12:46;;;;;;;;;;;;;;;16.82;76.00;101161.23;107542;1264;59841;-82
2023/06/16 04:15:13;;;;;;;;;;;;;;;16.96;75.97;101165.95;107320;1260;124227;-82
2023/06/16 04:17:40;;;;;;;;;;;;;;;17.09;75.78;101166.02;107258;1262;61265;-82
2023/06/16 04:20:10;;;;;;;;;;;;;;;17.14;75.18;101163.20;107087;1261;125250;-83
2023/06/16 04:22:36;;;;;;;;;;;;;;;17.24;75.18;101159.88;107202;1261;59983;-82
2023/06/16 04:25:03;;;;;;;;;;;;;;;17.40;74.93;101156.56;107228;1261;59607;-82
2023/06/16 04:27:32;;;;;;;;;;;;;;;17.54;74.78;101154.66;107098;1261;124594;-81
2023/06/16 04:29:58;;;;;;;;;;;;;;;17.63;74.32;101157.33;106991;1267;66373;-82
2023/06/16 04:32:24;;;;;;;;;;;;;;;17.68;74.25;101156.82;107351;1261;125042;-81
2023/06/16 04:34:56;;;;;;;;;;;;;;;17.78;74.20;101156.30;107401;1265;60914;-82
2023/06/16 04:37:22;;;;;;;;;;;;;;;17.90;74.04;101164.16;107202;1265;60481;-81
2023/06/16 04:39:48;;;;;;;;;;;;;;;17.97;73.63;101165.24;107067;1260;125275;-86
2023/06/16 04:42:15;;;;;;;;;;;;;;;18.03;73.44;101166.30;107327;1263;61261;-81
2023/06/16 04:44:41;;;;;;;;;;;;;;;18.07;72.89;101170.77;107165;1264;124290;-81
2023/06/16 04:47:09;;;;;;;;;;;;;;;18.09;73.01;101172.17;107490;1262;61286;-83
2023/06/16 04:49:35;;;;;;;;;;;;;;;18.18;72.90;101169.34;107602;1261;59857;-81
2023/06/16 04:52:01;;;;;;;;;;;;;;;18.24;72.55;101172.19;107103;1260;124286;-82
2023/06/16 04:54:29;;;;;;;;;;;;;;;18.29;72.38;101172.36;107245;1260;59716;-81
2023/06/16 04:56:55;;;;;;;;;;;;;;;18.35;72.26;101172.54;107117;1260;124451;-82
2023/06/16 04:59:21;;;;;;;;;;;;;;;18.41;72.03;101172.72;107143;1262;59361;-82
2023/06/16 05:01:48;;;;;;;;;;;;;;;18.49;71.90;101173.95;107181;1262;124917;-82
2023/06/16 05:04:14;;;;;;;;;;;;;;;18.61;71.64;101171.63;107736;1262;59356;-80
2023/06/16 05:06:42;;;;;;;;;;;;;;;18.77;71.55;101167.88;107227;1261;59514;-82
2023/06/16 05:09:08;;;;;;;;;;;;;;;18.92;71.33;101163.95;107495;1262;124360;-80
2023/06/16 05:11:35;;;;;;;;;;;;;;;19.02;70.85;101165.88;107255;1262;61135;-82
2023/06/16 05:14:02;;;;;;;;;;;;;;;19.12;70.60;101165.85;106845;1262;125108;-83
2023/06/16 05:20:01;;;;;;;;;;;;;;;19.45;70.29;101163.22;106859;1261;124622;-90
2023/06/16 05:22:27;;;;;;;;;;;;;;;19.64;69.96;101168.09;106940;1262;71724;-90
2023/06/16 05:25:03;;;;;;;;;;;;;;;19.74;69.55;101168.95;106895;1261;59358;-90
2023/06/16 05:27:33;;;;;;;;;;;;;;;19.79;69.31;101172.67;107046;1262;125311;-94
2023/06/16 05:30:18;;;;;;;;;;;;;;;19.84;68.94;101173.89;107385;1262;74566;-91
2023/06/16 05:32:49;;;;;;;;;;;;;;;19.83;68.65;101178.52;106802;1262;124462;-88
2023/06/16 05:35:18;;;;;;;;;;;;;;;19.87;68.62;101172.45;107161;1262;71112;-82
2023/06/16 05:37:44;;;;;;;;;;;;;;;19.98;68.49;101173.60;107261;1262;125283;-82
2023/06/16 05:40:12;;;;;;;;;;;;;;;20.14;68.32;101169.39;107483;1262;62253;-83
2023/06/16 05:42:44;;;;;;;;;;;;;;;20.29;67.99;101169.09;107274;1261;75161;-89
2023/06/16 05:45:10;;;;;;;;;;;;;;;20.38;67.58;101173.30;107196;1264;124409;-83
2023/06/16 05:47:46;;;;;;;;;;;;;;;20.47;67.53;101178.92;107355;1262;61108;-90
2023/06/16 05:50:12;;;;;;;;;;;;;;;20.59;67.28;101172.41;107307;1261;124421;-91
2023/06/16 05:52:41;;;;;;;;;;;;;;;20.68;66.94;101171.09;107311;1261;61514;-84
2023/06/16 05:55:13;;;;;;;;;;;;;;;20.80;66.86;101172.58;107096;1263;73400;-83
2023/06/16 05:57:44;;;;;;;;;;;;;;;21.06;66.81;101174.77;107038;1261;124574;-90
2023/06/16 06:00:11;;;;;;;;;;;;;;;21.30;66.30;101173.41;107040;1262;71081;-84
2023/06/16 06:02:40;;;;;;;;;;;;;;;21.54;66.02;101175.80;107065;1260;124625;-84
2023/06/16 06:05:06;;;;;;;;;;;;;;;21.99;66.11;101177.85;107291;1261;60993;-83
2023/06/16 06:07:45;;;;;;;;;;;;;;;22.57;65.65;101177.45;107085;1262;74541;-89
2023/06/16 06:10:32;;;;;;;;;;;;;;;22.97;64.19;101173.32;106908;1261;65776;-90
2023/06/16 06:13:06;;;;;;;;;;;;;;;23.22;63.59;101175.86;106947;1262;73356;-89
2023/06/16 06:15:33;;;;;;;;;;;;;;;23.35;62.88;101172.02;107027;1264;61351;-83
2023/06/16 06:18:03;;;;;;;;;;;;;;;23.28;62.15;101173.61;107196;1261;61362;-83
2023/06/16 06:20:31;;;;;;;;;;;;;;;23.17;62.12;101180.82;106824;1262;74437;-89
2023/06/16 06:26:13;;;;;;;;;;;;;;;23.07;61.67;101180.13;106893;1262;72417;-90
2023/06/16 06:28:40;;;;;;;;;;;;;;;23.05;61.53;101187.34;106701;1261;60450;-89
2023/06/16 06:31:21;;;;;;;;;;;;;;;23.01;61.07;101187.73;106811;1262;61225;-89
2023/06/16 06:34:08;;;;;;;;;;;;;;;22.86;60.67;101189.63;106595;1260;124522;-89
2023/06/16 06:36:47;;;;;;;;;;;;;;;22.66;60.76;101189.64;106618;1267;66886;-89
2023/06/16 06:39:14;;;;;;;;;;;;;;;22.60;60.87;101189.21;106770;1264;124383;-89
2023/06/16 06:41:56;;;;;;;;;;;;;;;22.60;60.72;101188.83;106708;1260;62286;-89
2023/06/16 06:44:22;;;;;;;;;;;;;;;22.60;60.38;101187.40;106842;1260;124418;-90
2023/06/16 06:46:58;;;;;;;;;;;;;;;22.54;60.30;101190.38;107169;1264;60472;-89
2023/06/16 06:49:37;;;;;;;;;;;;;;;22.43;60.42;101190.57;106966;1261;65928;-91
2023/06/16 06:52:07;;;;;;;;;;;;;;;22.40;60.57;101190.80;106803;1262;124842;-90
2023/06/16 06:54:45;;;;;;;;;;;;;;;22.35;60.32;101191.77;106854;1262;61150;-89
2023/06/16 06:57:12;;;;;;;;;;;;;;;22.28;60.32;101191.54;106896;1260;124301;-89
2023/06/16 06:59:47;;;;;;;;;;;;;;;22.25;60.22;101191.73;107008;1264;74444;-90
2023/06/16 07:02:21;;;;;;;;;;;;;;;22.21;60.38;101191.42;106953;1260;124579;-90
2023/06/16 07:04:53;;;;;;;;;;;;;;;22.18;60.34;101191.48;107053;1261;72402;-90
2023/06/16 07:07:20;;;;;;;;;;;;;;;22.18;60.36;101187.20;107384;1260;61238;-89
2023/06/16 07:09:46;;;;;;;;;;;;;;;22.15;60.61;101190.10;106877;1262;124446;-91
2023/06/16 07:12:18;;;;;;;;;;;;;;;22.18;60.45;101189.34;106727;1263;59253;-90
2023/06/16 07:14:47;;;;;;;;;;;;;;;22.21;60.56;101192.14;106660;1262;124633;-90
2023/06/16 07:17:14;;;;;;;;;;;;;;;22.26;60.33;101189.60;106737;1264;71214;-91
2023/06/16 07:19:42;;;;;;;;;;;;;;;22.30;60.37;101186.67;106954;1265;60618;-90
2023/06/16 07:22:09;;;;;;;;;;;;;;;22.29;60.09;101190.27;106967;1261;124481;-89
2023/06/16 07:24:52;;;;;;;;;;;;;;;22.22;60.07;101192.33;107025;1260;62698;-91
2023/06/16 07:27:19;;;;;;;;;;;;;;;22.24;60.02;101189.09;106685;1260;124374;-90
2023/06/16 07:29:47;;;;;;;;;;;;;;;22.08;59.75;101190.23;106868;1262;60575;-90
2023/06/16 07:32:36;;;;;;;;;;;;;;;21.97;59.92;101194.50;106542;1264;124504;-90
2023/06/16 07:35:21;;;;;;;;;;;;;;;21.86;59.96;101195.73;106922;1263;60949;-90
2023/06/16 07:37:47;;;;;;;;;;;;;;;21.70;59.89;101193.27;107323;1261;74698;-90
2023/06/16 07:40:16;;;;;;;;;;;;;;;21.55;60.08;101189.38;106789;1262;124261;-90
2023/06/16 07:42:45;;;;;;;;;;;;;;;21.44;60.13;101191.99;106671;1265;71193;-91
2023/06/16 07:45:32;;;;;;;;;;;;;;;21.25;59.97;101192.40;106615;1263;124385;-90
2023/06/16 07:48:23;;;;;;;;;;;;;;;21.08;60.35;101188.67;107101;1262;60367;-90
2023/06/16 07:50:57;;;;;;;;;;;;;;;20.95;60.76;101190.05;106638;1268;124311;-90
2023/06/16 07:53:39;;;;;;;;;;;;;;;20.81;60.65;101192.54;106961;1262;67191;-90
2023/06/16 07:56:07;;;;;;;;;;;;;;;20.69;60.69;101195.16;106612;1262;124508;-90
2023/06/16 07:58:39;;;;;;;;;;;;;;;20.50;60.83;101191.01;106684;1260;60883;-90
2023/06/16 08:01:06;;;;;;;;;;;;;;;20.45;61.60;101190.52;106906;1261;62216;-90
2023/06/16 08:04:06;;;;;;;;;;;;;;;20.51;61.61;101190.83;106593;1266;124424;-91
2023/06/16 08:06:32;;;;;;;;;;;;;;;20.53;61.72;101192.41;106951;1265;66849;-84
2023/06/16 08:08:59;;;;;;;;;;;;;;;20.56;61.74;101193.27;107186;1261;61398;-84
2023/06/16 08:11:32;;;;;;;;;;;;;;;20.54;61.91;101188.84;107200;1265;60338;-84
2023/06/16 08:13:59;;;;;;;;;;;;;;;20.58;62.18;101190.23;107076;1260;61362;-84
2023/06/16 08:16:25;;;;;;;;;;;;;;;20.69;62.54;101194.27;107128;1261;124969;-84
2023/06/16 08:18:55;;;;;;;;;;;;;;;20.85;62.53;101194.45;107339;1264;64602;-84
2023/06/16 08:21:23;;;;;;;;;;;;;;;20.98;62.30;101194.85;108564;1261;124264;-84
2023/06/16 08:23:52;;;;;;;;;;;;;;;21.00;62.07;101193.95;107230;1269;61385;-84
2023/06/16 08:26:19;;;;;;;;;;;;;;;21.09;61.93;101197.59;107250;1265;125381;-84
2023/06/16 08:28:47;;;;;;;;;;;;;;;21.15;61.86;101199.67;107428;1265;61003;-84
2023/06/16 08:31:16;;;;;;;;;;;;;;;21.24;61.93;101198.83;107331;1265;65810;-84
2023/06/16 08:33:43;;;;;;;;;;;;;;;21.44;61.99;101199.49;106832;1261;124657;-83
2023/06/16 08:36:11;;;;;;;;;;;;;;;21.68;61.63;101197.04;107036;1264;59607;-83
2023/06/16 08:38:37;;;;;;;;;;;;;;;21.72;61.13;101199.67;106939;1264;124651;-83
2023/06/16 08:41:10;;;;;;;;;;;;;;;21.68;60.81;101197.23;106931;1261;74711;-83
2023/06/16 08:43:38;;;;;;;;;;;;;;;21.60;60.60;101197.00;107009;1263;66937;-83
2023/06/16 08:46:08;;;;;;;;;;;;;;;21.54;60.61;101194.39;106930;1262;124572;-82
2023/06/16 08:48:38;;;;;;;;;;;;;;;21.46;60.47;101195.55;107014;1266;60591;-82
2023/06/16 08:51:13;;;;;;;;;;;;;;;21.42;60.94;101192.56;107055;1265;124320;-85
2023/06/16 08:53:41;;;;;;;;;;;;;;;21.58;61.30;101190.94;107334;1260;74969;-85
2023/06/16 08:56:12;;;;;;;;;;;;;;;21.76;60.87;101191.23;107706;1263;65680;-85
2023/06/16 08:58:41;;;;;;;;;;;;;;;21.74;60.36;101188.93;106851;1262;71580;-83
2023/06/16 09:01:40;;;;;;;;;;;;;;;21.65;60.21;101190.48;106678;1260;59902;-84
2023/06/16 09:04:12;;;;;;;;;;;;;;;21.63;60.40;101190.16;106892;1265;124373;-84
2023/06/16 09:06:44;;;;;;;;;;;;;;;21.65;60.48;101188.33;107024;1261;74748;-84
2023/06/16 09:09:10;;;;;;;;;;;;;;;21.74;60.78;101187.15;107399;1261;124476;-84
2023/06/16 09:11:36;;;;;;;;;;;;;;;21.90;60.75;101189.95;107469;1260;59705;-83
2023/06/16 09:14:14;;;;;;;;;;;;;;;21.98;60.35;101188.40;107280;1262;59646;-83
2023/06/16 09:16:41;;;;;;;;;;;;;;;22.05;60.42;101184.19;107041;1260;60410;-83
2023/06/16 09:19:09;;;;;;;;;;;;;;;22.13;60.15;101187.98;107080;1261;60959;-83
2023/06/16 09:21:37;;;;;;;;;;;;;;;22.16;59.84;101185.80;106990;1261;125246;-83
2023/06/16 09:24:05;;;;;;;;;;;;;;;22.16;59.65;101186.86;107227;1261;72747;-84
2023/06/16 09:26:35;;;;;;;;;;;;;;;22.21;59.43;101185.00;107173;1261;124665;-83
2023/06/16 09:29:05;;;;;;;;;;;;;;;22.30;59.26;101181.84;107028;1260;61586;-83
2023/06/16 09:31:31;;;;;;;;;;;;;;;22.43;59.27;101179.66;107430;1264;75177;-84
2023/06/16 09:34:05;;;;;;;;;;;;;;;22.58;59.07;101181.72;108082;1264;124501;-84
2023/06/16 09:36:32;;;;;;;;;;;;;;;22.75;59.00;101177.30;107056;1260;73639;-84
2023/06/16 09:38:58;;;;;;;;;;;;;;;22.88;58.62;101175.79;107214;1265;124950;-84
2023/06/16 09:41:24;;;;;;;;;;;;;;;23.00;58.30;101177.35;107261;1266;61165;-84
2023/06/16 09:43:51;;;;;;;;;;;;;;;22.99;57.79;101174.52;107167;1260;60666;-84
2023/06/16 09:46:17;;;;;;;;;;;;;;;22.95;57.61;101172.79;107159;1260;124307;-83
2023/06/16 09:48:50;;;;;;;;;;;;;;;22.91;57.50;101172.70;107291;1261;60218;-84
2023/06/16 09:51:17;;;;;;;;;;;;;;;22.80;57.22;101166.30;107214;1264;124315;-83
2023/06/16 09:53:45;;;;;;;;;;;;;;;22.73;56.83;101165.54;107147;1260;59409;-83
2023/06/16 09:56:14;;;;;;;;;;;;;;;22.71;56.92;101161.63;107153;1260;74684;-83
2023/06/16 09:58:42;;;;;;;;;;;;;;;22.82;57.21;101166.80;107447;1260;68036;-82
2023/06/16 10:01:15;;;;;;;;;;;;;;;22.96;56.89;101165.81;107645;1260;72505;-82
2023/06/16 10:03:43;;;;;;;;;;;;;;;23.09;56.54;101162.55;107036;1261;124854;-83
2023/06/16 10:06:22;;;;;;;;;;;;;;;23.27;56.59;101162.15;106927;1260;60032;-83
2023/06/16 10:08:54;;;;;;;;;;;;;;;23.47;56.33;101160.84;107134;1261;124759;-83
2023/06/16 10:11:20;;;;;;;;;;;;;;;23.60;56.04;101159.84;107479;1260;65668;-83
2023/06/16 10:13:57;;;;;;;;;;;;;;;23.64;55.53;101160.99;107249;1261;72763;-82
2023/06/16 10:16:26;;;;;;;;;;;;;;;23.60;55.38;101160.02;106901;1260;124365;-83
2023/06/16 10:18:53;;;;;;;;;;;;;;;23.49;55.25;101160.79;107162;1260;59848;-83
2023/06/16 10:21:26;;;;;;;;;;;;;;;23.53;55.62;101164.48;107077;1261;124362;-83
2023/06/16 10:23:53;;;;;;;;;;;;;;;23.55;55.10;101160.30;107098;1260;67122;-83
2023/06/16 10:26:26;;;;;;;;;;;;;;;23.53;54.95;101157.66;107265;1260;124706;-83
2023/06/16 10:28:54;;;;;;;;;;;;;;;23.67;55.16;101159.33;107131;1261;60965;-83
2023/06/16 10:31:28;;;;;;;;;;;;;;;23.97;55.31;101155.77;107366;1260;61078;-83
2023/06/16 10:33:59;;;;;;;;;;;;;;;24.27;54.77;101156.30;107351;1260;125263;-83
2023/06/16 10:36:31;;;;;;;;;;;;;;;24.41;53.91;101153.97;107202;1260;65807;-83
2023/06/16 10:39:08;;;;;;;;;;;;;;;24.41;53.45;101154.14;108486;1260;125038;-84
2023/06/16 10:41:47;;;;;;;;;;;;;;;24.41;53.34;101155.92;107305;1261;59557;-84
2023/06/16 10:44:32;;;;;;;;;;;;;;;24.43;53.10;101154.08;107414;1261;61891;-83
2023/06/16 10:47:07;;;;;;;;;;;;;;;24.52;53.05;101160.89;107406;1260;73510;-84
2023/06/16 10:49:57;;;;;;;;;;;;;;;24.55;52.76;101156.14;107071;1267;67160;-83
2023/06/16 10:52:33;;;;;;;;;;;;;;;24.57;52.68;101149.98;106926;1264;124345;-83
2023/06/16 10:55:18;;;;;;;;;;;;;;;24.64;52.56;101151.23;107087;1260;60058;-83
2023/06/16 10:57:46;;;;;;;;;;;;;;;24.75;52.39;101147.34;107193;1261;124394;-82
2023/06/16 11:00:14;;;;;;;;;;;;;;;24.82;51.85;101148.21;107222;1260;74108;-83
2023/06/16 11:02:56;;;;;;;;;;;;;;;24.81;51.69;101144.66;106917;1260;124433;-90
2023/06/16 11:05:24;;;;;;;;;;;;;;;24.80;51.55;101148.09;106969;1261;72761;-83
2023/06/16 11:08:06;;;;;;;;;;;;;;;24.72;51.33;101146.35;107398;1260;61088;-83
2023/06/16 11:10:49;;;;;;;;;;;;;;;24.61;51.10;101145.58;107312;1264;124439;-84
2023/06/16 11:13:16;;;;;;;;;;;;;;;24.59;51.45;101145.80;107185;1260;74511;-83
2023/06/16 11:15:44;;;;;;;;;;;;;;;24.76;51.51;101146.06;107046;1260;125057;-90
2023/06/16 11:18:17;;;;;;;;;;;;;;;24.96;51.15;101148.73;107191;1260;72467;-90
2023/06/16 11:20:44;;;;;;;;;;;;;;;25.08;50.53;101142.10;106805;1264;124481;-91
2023/06/16 11:23:33;;;;;;;;;;;;;;;25.07;50.02;101144.48;106937;1260;60272;-90
2023/06/16 11:26:10;;;;;;;;;;;;;;;25.01;50.13;101142.30;107454;1260;74751;-92
2023/06/16 11:28:45;;;;;;;;;;;;;;;24.94;49.96;101141.80;106648;1260;124294;-93
2023/06/16 11:34:21;;;;;;;;;;;;;;;24.63;49.96;101137.81;106612;1264;124642;-91
2023/06/16 11:37:01;;;;;;;;;;;;;;;24.56;49.97;101139.78;106884;1260;60923;-92
2023/06/16 11:39:58;;;;;;;;;;;;;;;24.36;49.94;101137.23;106814;1260;124261;-91
2023/06/16 11:42:32;;;;;;;;;;;;;;;24.15;49.96;101133.82;106890;1261;67061;-90
2023/06/16 11:44:59;;;;;;;;;;;;;;;24.05;50.05;101132.82;106608;1260;124485;-90
2023/06/16 11:47:25;;;;;;;;;;;;;;;24.03;50.19;101133.94;106827;1261;61296;-90
2023/06/16 11:49:53;;;;;;;;;;;;;;;24.06;50.18;101129.58;106772;1263;60439;-91
2023/06/16 11:52:34;;;;;;;;;;;;;;;24.03;49.94;101127.49;106706;1260;124519;-91
2023/06/16 11:55:00;;;;;;;;;;;;;;;23.97;50.03;101127.10;106892;1260;68253;-91
2023/06/16 11:57:39;;;;;;;;;;;;;;;23.90;50.08;101124.77;107080;1260;124277;-91
2023/06/16 12:00:07;;;;;;;;;;;;;;;23.74;49.79;101127.27;107140;1260;59719;-91
2023/06/16 12:02:52;;;;;;;;;;;;;;;23.64;50.13;101124.80;106708;1260;124584;-90
2023/06/16 12:05:27;;;;;;;;;;;;;;;23.62;50.19;101129.51;106823;1260;74749;-91
2023/06/16 12:07:54;;;;;;;;;;;;;;;23.55;50.29;101126.46;106882;1260;65930;-90
2023/06/16 12:10:48;;;;;;;;;;;;;;;23.59;50.37;101122.58;106787;1260;124759;-91
2023/06/16 12:13:25;;;;;;;;;;;;;;;23.63;50.56;101125.02;107180;1260;59868;-91
2023/06/16 12:15:53;;;;;;;;;;;;;;;23.81;50.49;101122.65;107144;1260;124399;-90
2023/06/16 12:18:33;;;;;;;;;;;;;;;23.99;50.26;101120.95;107084;1260;74546;-90
2023/06/16 12:21:20;;;;;;;;;;;;;;;24.18;50.28;101124.78;106975;1260;124418;-91
2023/06/16 12:23:53;;;;;;;;;;;;;;;24.37;49.45;101120.70;106875;1260;71463;-91
2023/06/16 12:26:30;;;;;;;;;;;;;;;24.50;49.33;101122.88;106820;1260;59317;-91
2023/06/16 12:29:15;;;;;;;;;;;;;;;24.69;49.11;101123.83;107068;1260;61329;-90
2023/06/16 12:31:52;;;;;;;;;;;;;;;24.84;48.93;101118.92;107097;1260;73949;-91
2023/06/16 12:34:21;;;;;;;;;;;;;;;24.99;48.98;101124.59;107141;1260;124523;-91
2023/06/16 12:37:16;;;;;;;;;;;;;;;25.08;48.43;101118.04;107258;1260;72671;-90
2023/06/16 12:39:42;;;;;;;;;;;;;;;25.07;48.25;101120.23;106923;1260;124285;-90
2023/06/16 12:42:12;;;;;;;;;;;;;;;25.09;48.32;101120.36;107180;1261;61401;-91
2023/06/16 12:44:51;;;;;;;;;;;;;;;25.10;48.09;101121.59;106593;1261;124597;-90
2023/06/16 12:47:20;;;;;;;;;;;;;;;24.98;47.94;101116.00;106964;1260;65857;-90
2023/06/16 12:49:49;;;;;;;;;;;;;;;24.82;47.73;101115.73;106804;1261;72752;-91